Time;durP1;ratioP1;P1;durP2;ratioP2;P2;SDS_P1;SDS_P2;PMS_P1;PMS_P2;Temp;Humidity;BMP_temperature;BMP_pressure;BME280_temperature;BME280_humidity;BME280_pressure;Samples;Min_cycle;Max_cycle;Signal;HPM_P1;HPM_P2
2021/12/23 00:00:53;;;;;;;9.27;4.68;;;;;;;-0.71;88.50;100641.16;5063513;28;20252;-68
2021/12/23 00:03:18;;;;;;;3.22;2.22;;;;;;;-0.70;88.95;100641.25;5063623;28;20025;-69
2021/12/23 00:05:44;;;;;;;8.73;3.58;;;;;;;-0.67;88.84;100637.97;5063430;28;20345;-68
2021/12/23 00:08:09;;;;;;;4.50;2.15;;;;;;;-0.54;88.18;100636.75;5063307;28;20047;-69
2021/12/23 00:10:34;;;;;;;7.32;3.38;;;;;;;-0.60;88.06;100621.22;5061714;28;20049;-68
2021/12/23 00:13:00;;;;;;;2.40;2.10;;;;;;;-0.38;87.63;100622.94;5063308;28;20063;-69
2021/12/23 00:15:38;;;;;;;3.28;2.28;;;;;;;-0.44;87.71;100622.69;5063554;28;20060;-69
2021/12/23 00:18:40;;;;;;;8.30;4.38;;;;;;;-0.55;87.88;100619.72;5063348;28;20088;-68
2021/12/23 00:23:50;;;;;;;4.20;2.33;;;;;;;-0.42;87.13;100603.25;5063473;28;20094;-68
2021/12/23 00:26:15;;;;;;;4.20;2.00;;;;;;;-0.51;87.97;100613.94;5061705;28;20044;-69
2021/12/23 00:28:41;;;;;;;4.65;2.80;;;;;;;-0.55;88.17;100602.75;5063248;28;20025;-68
2021/12/23 00:31:06;;;;;;;3.58;2.28;;;;;;;-0.58;88.18;100599.19;5063173;28;20029;-68
2021/12/23 00:33:35;;;;;;;2.78;1.65;;;;;;;-0.59;88.18;100605.97;5063210;28;20047;-67
2021/12/23 00:36:01;;;;;;;6.60;3.60;;;;;;;-0.52;87.94;100604.53;5063207;28;20496;-67
2021/12/23 00:38:30;;;;;;;6.07;3.30;;;;;;;-0.58;88.07;100597.53;5063046;28;20021;-67
2021/12/23 00:40:58;;;;;;;5.88;3.13;;;;;;;-0.58;88.41;100610.28;5061718;28;20044;-67
2021/12/23 00:43:24;;;;;;;6.68;3.50;;;;;;;-0.63;88.91;100602.44;5061572;28;20029;-67
2021/12/23 00:45:50;;;;;;;6.47;3.47;;;;;;;-0.65;89.00;100587.88;5065310;28;20021;-69
2021/12/23 00:48:16;;;;;;;4.22;2.22;;;;;;;-0.61;88.85;100592.31;5066862;28;20021;-68
2021/12/23 00:50:42;;;;;;;6.95;3.90;;;;;;;-0.56;88.86;100593.34;5067018;28;20489;-68
2021/12/23 00:53:10;;;;;;;8.05;3.75;;;;;;;-0.65;88.91;100576.00;5067056;28;20032;-68
2021/12/23 00:55:35;;;;;;;3.78;2.63;;;;;;;-0.64;89.00;100572.63;5066945;28;20085;-69
2021/12/23 00:58:01;;;;;;;5.85;3.65;;;;;;;-0.66;89.40;100570.84;5066621;28;20025;-68
2021/12/23 01:00:26;;;;;;;7.90;3.33;;;;;;;-0.57;89.14;100575.44;5066973;28;20027;-68
2021/12/23 01:02:52;;;;;;;6.57;3.35;;;;;;;-0.59;88.93;100562.63;5066641;28;20045;-68
2021/12/23 01:05:20;;;;;;;7.63;3.40;;;;;;;-0.63;89.36;100564.19;5066686;28;20056;-67
2021/12/23 01:07:45;;;;;;;6.80;4.05;;;;;;;-0.63;89.60;100564.19;5066612;28;20021;-67
2021/12/23 01:10:11;;;;;;;6.10;2.55;;;;;;;-0.51;89.01;100551.03;5066661;28;20184;-69
2021/12/23 01:12:53;;;;;;;5.80;3.75;;;;;;;-0.56;89.04;100557.63;5065027;28;20111;-68
2021/12/23 01:17:56;;;;;;;5.80;2.88;;;;;;;-0.58;89.66;100550.75;5066368;28;20080;-68
2021/12/23 01:20:29;;;;;;;6.57;4.47;;;;;;;-0.55;89.30;100545.75;5064790;28;20365;-68
2021/12/23 01:22:57;;;;;;;6.55;2.55;;;;;;;-0.54;89.34;100547.50;5066384;28;20044;-68
2021/12/23 01:25:23;;;;;;;7.47;3.33;;;;;;;-0.54;89.60;100540.72;5066399;28;20103;-68
2021/12/23 01:27:49;;;;;;;5.45;2.70;;;;;;;-0.52;89.54;100538.22;5065980;28;20032;-68
2021/12/23 01:30:17;;;;;;;9.15;3.50;;;;;;;-0.63;89.57;100528.50;5066359;28;20078;-69
2021/12/23 01:32:43;;;;;;;6.78;3.25;;;;;;;-0.53;89.44;100529.69;5066185;28;20111;-69
2021/12/23 01:35:09;;;;;;;5.22;2.70;;;;;;;-0.59;89.51;100513.31;5066282;28;20032;-69
2021/12/23 01:37:34;;;;;;;10.55;4.22;;;;;;;-0.60;89.83;100520.09;5065918;28;20025;-69
2021/12/23 01:39:59;;;;;;;8.85;4.57;;;;;;;-0.56;89.33;100506.63;5066142;28;20025;-69
2021/12/23 01:42:25;;;;;;;3.78;2.03;;;;;;;-0.48;89.25;100511.16;5065752;28;20021;-68
2021/12/23 01:44:50;;;;;;;6.18;3.00;;;;;;;-0.52;89.04;100485.53;5064611;28;20021;-69
2021/12/23 01:47:15;;;;;;;9.43;4.28;;;;;;;-0.39;88.60;100491.09;5065734;28;20028;-69
2021/12/23 01:49:41;;;;;;;4.70;2.53;;;;;;;-0.51;88.90;100477.06;5048004;28;20035;-69
2021/12/23 01:52:07;;;;;;;6.63;2.78;;;;;;;-0.51;89.23;100479.63;5065919;28;20043;-69
2021/12/23 01:54:32;;;;;;;7.13;3.25;;;;;;;-0.61;89.50;100471.56;5064438;28;20084;-69
2021/12/23 01:56:57;;;;;;;3.28;1.73;;;;;;;-0.48;89.59;100473.78;5065117;28;20025;-69
2021/12/23 01:59:23;;;;;;;12.00;3.83;;;;;;;-0.58;89.94;100474.22;5065624;28;20021;-69
2021/12/23 02:01:48;;;;;;;3.08;1.65;;;;;;;-0.48;89.68;100467.81;5065559;28;20054;-69
2021/12/23 02:04:13;;;;;;;5.38;3.13;;;;;;;-0.61;89.50;100446.94;5065429;28;20032;-69
2021/12/23 02:06:39;;;;;;;4.82;2.45;;;;;;;-0.55;89.78;100452.28;5065425;28;20508;-69
2021/12/23 02:09:04;;;;;;;5.47;3.35;;;;;;;-0.53;89.65;100445.53;5065470;28;20017;-69
2021/12/23 02:11:30;;;;;;;6.53;3.22;;;;;;;-0.51;89.71;100450.69;5065096;28;20520;-69
2021/12/23 02:13:55;;;;;;;4.57;2.38;;;;;;;-0.55;89.64;100449.72;5063746;28;20068;-69
2021/12/23 02:16:21;;;;;;;3.35;1.85;;;;;;;-0.58;90.14;100457.25;5065230;28;20033;-68
2021/12/23 02:18:46;;;;;;;8.85;4.85;;;;;;;-0.61;90.41;100444.41;5065243;28;20167;-68
2021/12/23 02:21:11;;;;;;;3.85;2.42;;;;;;;-0.51;90.27;100449.00;5063845;28;20024;-69
2021/12/23 02:23:38;;;;;;;8.23;3.65;;;;;;;-0.60;90.41;100432.50;5065096;28;20029;-69
2021/12/23 02:26:04;;;;;;;8.23;4.00;;;;;;;-0.56;90.33;100435.22;5065225;28;20052;-69
2021/12/23 02:28:29;;;;;;;9.15;4.15;;;;;;;-0.44;89.87;100423.72;5065040;28;20040;-69
2021/12/23 02:30:55;;;;;;;11.52;4.97;;;;;;;-0.47;90.47;100421.06;5065209;28;20024;-69
2021/12/23 02:33:25;;;;;;;9.73;4.65;;;;;;;-0.46;90.57;100425.38;5064908;28;20024;-69
2021/12/23 02:35:55;;;;;;;15.43;6.38;;;;;;;-0.58;90.72;100405.38;5065144;28;20017;-69
2021/12/23 02:38:20;;;;;;;8.43;4.07;;;;;;;-0.52;90.50;100409.03;5064881;28;20025;-69
2021/12/23 02:40:47;;;;;;;11.68;4.45;;;;;;;-0.51;90.59;100402.22;5064795;28;20051;-69
2021/12/23 02:43:18;;;;;;;15.35;4.82;;;;;;;-0.47;90.62;100398.13;5064617;28;20555;-69
2021/12/23 02:45:46;;;;;;;8.30;3.97;;;;;;;-0.38;90.61;100398.44;5064835;28;20532;-70
2021/12/23 02:48:22;;;;;;;8.65;3.22;;;;;;;-0.35;90.54;100390.91;5064473;28;20032;-69
2021/12/23 02:50:50;;;;;;;12.07;5.43;;;;;;;-0.50;90.67;100368.28;5064666;28;20525;-69
2021/12/23 02:53:15;;;;;;;19.63;6.60;;;;;;;-0.46;90.70;100364.16;5063237;28;20055;-69
2021/12/23 02:55:41;;;;;;;19.45;7.30;;;;;;;-0.41;90.85;100377.94;5064787;28;20025;-70
2021/12/23 02:58:07;;;;;;;12.75;4.72;;;;;;;-0.42;90.88;100382.19;5064418;28;20025;-69
2021/12/23 03:00:33;;;;;;;21.05;4.80;;;;;;;-0.34;91.01;100386.69;5064597;28;20017;-69
2021/12/23 03:02:59;;;;;;;33.80;7.22;;;;;;;-0.35;90.89;100373.03;5064419;28;20028;-69
2021/12/23 03:05:24;;;;;;;35.03;6.00;;;;;;;-0.36;90.99;100370.44;5064404;28;20025;-69
2021/12/23 03:07:50;;;;;;;72.28;8.88;;;;;;;-0.34;91.00;100372.25;5063460;28;20432;-71
2021/12/23 03:10:15;;;;;;;49.53;7.07;;;;;;;-0.31;90.95;100354.50;5062813;28;20057;-70
2021/12/23 03:12:41;;;;;;;76.97;11.07;;;;;;;-0.47;91.14;100335.22;5062742;28;20339;-72
2021/12/23 03:15:07;;;;;;;65.80;10.70;;;;;;;-0.33;91.13;100351.03;5064269;28;20020;-70
2021/12/23 03:17:33;;;;;;;52.95;8.23;;;;;;;-0.30;91.09;100343.47;5062447;28;20485;-70
2021/12/23 03:19:59;;;;;;;66.10;9.80;;;;;;;-0.35;91.35;100334.78;5062903;28;20028;-69
2021/12/23 03:22:24;;;;;;;50.92;9.75;;;;;;;-0.34;91.37;100328.88;5064139;28;20021;-69
2021/12/23 03:24:49;;;;;;;91.22;10.68;;;;;;;-0.26;91.25;100324.88;5064060;28;20132;-69
2021/12/23 03:27:15;;;;;;;40.30;7.57;;;;;;;-0.20;90.96;100328.47;5063848;28;20089;-69
2021/12/23 03:29:40;;;;;;;100.63;12.00;;;;;;;-0.23;91.24;100325.81;5063994;28;20033;-70
2021/12/23 03:32:06;;;;;;;109.15;11.48;;;;;;;-0.39;91.34;100300.66;5063889;28;20025;-70
2021/12/23 03:34:31;;;;;;;135.00;15.57;;;;;;;-0.27;91.29;100305.31;5063870;28;20025;-69
2021/12/23 03:36:57;;;;;;;123.75;14.07;;;;;;;-0.31;91.59;100298.38;5063811;28;20446;-69
2021/12/23 03:39:22;;;;;;;62.33;7.78;;;;;;;-0.18;91.25;100309.88;5063892;28;20024;-70
2021/12/23 03:41:48;;;;;;;149.20;19.98;;;;;;;-0.21;91.31;100297.00;5062224;28;20067;-69
2021/12/23 03:44:13;;;;;;;108.07;14.50;;;;;;;-0.20;91.61;100285.09;5063448;28;20051;-70
2021/12/23 03:46:39;;;;;;;53.45;6.47;;;;;;;-0.14;91.33;100275.09;5063500;28;20024;-70
2021/12/23 03:49:08;;;;;;;129.88;15.85;;;;;;;-0.20;91.27;100283.44;5062190;28;20029;-71
2021/12/23 03:51:33;;;;;;;118.40;12.65;;;;;;;-0.19;91.30;100272.38;5063406;28;20021;-72
2021/12/23 03:53:59;;;;;;;85.95;11.02;;;;;;;-0.16;91.51;100271.66;5062323;28;20427;-71
2021/12/23 03:56:24;;;;;;;183.90;22.30;;;;;;;-0.22;91.51;100274.00;5063537;28;20056;-72
2021/12/23 03:58:50;;;;;;;196.85;20.58;;;;;;;-0.25;91.80;100269.63;5063270;28;20028;-72
2021/12/23 04:01:16;;;;;;;170.90;18.02;;;;;;;-0.21;91.68;100273.16;5063481;28;20024;-72
2021/12/23 04:03:42;;;;;;;249.98;24.00;;;;;;;-0.17;91.85;100270.75;5063330;28;20032;-73
2021/12/23 04:06:07;;;;;;;243.88;22.98;;;;;;;-0.19;91.99;100258.78;5063543;28;20028;-74
2021/12/23 04:08:33;;;;;;;126.07;15.00;;;;;;;-0.22;92.14;100256.13;5063333;28;20063;-74
2021/12/23 04:10:59;;;;;;;90.30;10.10;;;;;;;-0.16;91.81;100248.69;5061704;28;20124;-73
2021/12/23 04:13:26;;;;;;;131.73;16.70;;;;;;;-0.18;91.86;100252.84;5062999;28;20070;-73
2021/12/23 04:15:52;;;;;;;189.07;20.98;;;;;;;-0.30;92.17;100228.66;5063362;28;20025;-73
2021/12/23 04:18:18;;;;;;;150.60;18.83;;;;;;;-0.18;92.22;100242.66;5063192;28;20114;-72
2021/12/23 04:20:53;;;;;;;102.93;13.02;;;;;;;-0.21;91.96;100224.69;5067065;28;20025;-71
2021/12/23 04:23:29;;;;;;;141.98;16.58;;;;;;;-0.25;92.08;100213.50;5067346;28;20017;-71
2021/12/23 04:25:55;;;;;;;112.00;16.85;;;;;;;-0.24;92.36;100222.03;5067449;28;20025;-69
2021/12/23 04:28:22;;;;;;;147.18;19.00;;;;;;;-0.13;92.06;100230.91;5067108;28;20029;-69
2021/12/23 04:30:48;;;;;;;142.98;19.42;;;;;;;-0.11;92.25;100220.75;5067342;28;20029;-71
2021/12/23 04:33:13;;;;;;;150.07;14.90;;;;;;;-0.15;92.15;100204.47;5065856;28;20409;-71
2021/12/23 04:35:38;;;;;;;171.73;19.90;;;;;;;-0.06;92.08;100212.41;5065958;28;20032;-70
2021/12/23 04:38:04;;;;;;;144.20;15.85;;;;;;;-0.14;92.00;100207.06;5067089;28;20033;-71
2021/12/23 04:40:33;;;;;;;99.35;10.02;;;;;;;-0.10;91.97;100210.59;5067101;28;20025;-70
2021/12/23 04:42:58;;;;;;;137.32;18.52;;;;;;;-0.07;92.20;100208.13;5065596;28;20021;-69
2021/12/23 04:45:23;;;;;;;94.72;15.18;;;;;;;-0.05;92.38;100198.81;5067098;28;20071;-69
2021/12/23 04:47:49;;;;;;;80.28;11.95;;;;;;;-0.05;92.36;100201.38;5066735;28;20025;-69
2021/12/23 04:50:15;;;;;;;106.00;19.73;;;;;;;-0.01;92.47;100200.69;5066933;28;20028;-69
2021/12/23 04:52:42;;;;;;;145.25;17.38;;;;;;;0.01;92.49;100202.41;5066970;28;20068;-69
2021/12/23 04:55:08;;;;;;;188.52;24.02;;;;;;;0.06;92.42;100190.66;5066989;28;20025;-70
2021/12/23 04:57:33;;;;;;;117.55;19.50;;;;;;;0.12;92.53;100193.41;5066750;28;20043;-70
2021/12/23 04:59:59;;;;;;;93.70;17.58;;;;;;;0.16;92.46;100195.22;5066631;28;20024;-70
2021/12/23 05:02:24;;;;;;;41.28;14.20;;;;;;;0.16;92.47;100177.34;5066864;28;20025;-72
2021/12/23 05:04:50;;;;;;;33.47;11.32;;;;;;;0.26;92.57;100182.75;5066834;28;20044;-71
2021/12/23 05:07:19;;;;;;;45.08;13.25;;;;;;;0.34;92.64;100181.25;5066212;28;20047;-72
2021/12/23 05:09:45;;;;;;;69.30;16.25;;;;;;;0.37;92.57;100176.25;5066300;28;20481;-72
2021/12/23 05:12:10;;;;;;;35.45;12.68;;;;;;;0.42;92.77;100172.16;5065825;28;20056;-72
2021/12/23 05:14:36;;;;;;;39.08;12.70;;;;;;;0.48;92.81;100167.22;5066054;28;20490;-71
2021/12/23 05:17:01;;;;;;;41.13;15.00;;;;;;;0.63;92.92;100171.03;5066059;28;20031;-71
2021/12/23 05:19:28;;;;;;;36.20;12.80;;;;;;;0.68;93.10;100159.28;5066045;28;20044;-71
2021/12/23 05:21:53;;;;;;;46.90;14.57;;;;;;;0.68;93.26;100149.03;5066040;28;20031;-71
2021/12/23 05:24:20;;;;;;;53.30;15.85;;;;;;;0.77;93.30;100152.69;5064700;28;20025;-72
2021/12/23 05:26:45;;;;;;;43.55;14.35;;;;;;;0.87;93.63;100149.53;5065543;28;20437;-73
2021/12/23 05:29:11;;;;;;;41.50;14.45;;;;;;;0.94;93.58;100142.91;5065719;28;20039;-73
2021/12/23 05:31:38;;;;;;;55.10;16.38;;;;;;;0.94;93.84;100128.41;5064833;28;20028;-73
2021/12/23 05:34:04;;;;;;;45.80;16.25;;;;;;;1.10;93.76;100134.81;5066182;28;20449;-73
2021/12/23 05:36:30;;;;;;;46.33;15.35;;;;;;;1.10;93.96;100132.25;5065809;28;20523;-74
2021/12/23 05:38:55;;;;;;;33.08;13.43;;;;;;;1.21;94.07;100127.44;5065830;28;20108;-73
2021/12/23 05:41:23;;;;;;;34.88;13.32;;;;;;;1.23;94.30;100130.03;5065845;28;20029;-75
2021/12/23 05:43:48;;;;;;;44.80;15.68;;;;;;;1.34;94.30;100140.53;5065626;28;20019;-79
2021/12/23 05:46:14;;;;;;;17.63;6.50;;;;;;;1.39;94.40;100130.41;5065962;28;20043;-77
2021/12/23 05:48:39;;;;;;;41.30;17.40;;;;;;;1.45;94.46;100135.69;5065720;28;20028;-76
2021/12/23 05:51:05;;;;;;;49.15;17.70;;;;;;;1.47;94.19;100126.34;5066071;28;20028;-77
2021/12/23 05:53:30;;;;;;;54.13;18.48;;;;;;;1.52;94.37;100118.78;5064262;28;20024;-77
2021/12/23 05:55:55;;;;;;;43.28;16.63;;;;;;;1.55;94.57;100111.19;5064274;28;20063;-76
2021/12/23 05:58:21;;;;;;;44.40;17.42;;;;;;;1.61;94.53;100112.16;5065313;28;20025;-77
2021/12/23 06:00:46;;;;;;;53.78;18.35;;;;;;;1.63;94.64;100103.69;5064189;28;20417;-76
2021/12/23 06:03:11;;;;;;;58.25;18.10;;;;;;;1.59;94.77;100095.06;5064117;28;20090;-79
2021/12/23 06:05:37;;;;;;;48.70;17.58;;;;;;;1.67;94.71;100100.34;5064526;28;20060;-79
2021/12/23 06:08:02;;;;;;;46.00;17.77;;;;;;;1.65;94.67;100084.97;5064250;28;20037;-79
2021/12/23 06:10:28;;;;;;;45.13;17.45;;;;;;;1.68;94.71;100087.59;5065414;28;20124;-80
2021/12/23 06:12:53;;;;;;;47.38;16.55;;;;;;;1.73;94.75;100090.25;5064965;28;20411;-76
2021/12/23 06:15:19;;;;;;;41.03;16.58;;;;;;;1.72;94.72;100081.72;5063778;28;20056;-75
2021/12/23 06:17:45;;;;;;;36.38;15.70;;;;;;;1.74;94.81;100084.31;5065283;28;20121;-75
2021/12/23 06:20:11;;;;;;;41.60;16.13;;;;;;;1.73;94.73;100077.47;5063732;28;20052;-75
2021/12/23 06:22:37;;;;;;;42.28;16.88;;;;;;;1.82;94.99;100085.34;5063514;28;20123;-75
2021/12/23 06:25:05;;;;;;;46.70;17.23;;;;;;;1.81;94.93;100075.94;5064977;28;20027;-75
2021/12/23 06:27:31;;;;;;;55.58;18.23;;;;;;;1.88;94.90;100081.19;5064614;28;20108;-76
2021/12/23 06:29:57;;;;;;;46.60;16.30;;;;;;;1.83;94.86;100056.38;5063443;28;20021;-76
2021/12/23 06:32:22;;;;;;;48.17;18.27;;;;;;;1.69;94.93;100035.56;5063589;28;20024;-76
2021/12/23 06:34:48;;;;;;;55.20;19.27;;;;;;;1.95;94.96;100071.13;5064801;28;20036;-75
2021/12/23 06:37:13;;;;;;;63.90;18.80;;;;;;;1.90;94.99;100065.03;5064861;28;20020;-74
2021/12/23 06:39:39;;;;;;;69.25;21.35;;;;;;;1.92;94.80;100060.81;5064698;28;20017;-75
2021/12/23 06:42:06;;;;;;;64.40;21.80;;;;;;;1.89;94.84;100058.19;5064416;28;20025;-75
2021/12/23 06:44:31;;;;;;;63.75;21.65;;;;;;;1.95;94.85;100055.75;5063269;28;20067;-75
2021/12/23 06:46:56;;;;;;;49.72;17.75;;;;;;;1.94;94.85;100048.91;5064733;28;20394;-75
2021/12/23 06:49:22;;;;;;;67.25;20.88;;;;;;;1.97;94.81;100054.09;5064758;28;20466;-75
2021/12/23 06:51:48;;;;;;;91.07;24.65;;;;;;;1.97;95.16;100051.53;5063338;28;20029;-76
2021/12/23 06:54:15;;;;;;;79.75;23.00;;;;;;;2.03;94.75;100052.50;5064623;28;20017;-75
2021/12/23 06:56:40;;;;;;;61.10;21.13;;;;;;;2.04;95.01;100043.97;5063086;28;20120;-76
2021/12/23 06:59:06;;;;;;;74.00;21.35;;;;;;;2.02;95.06;100040.50;5064300;28;20025;-75
2021/12/23 07:01:32;;;;;;;78.28;23.40;;;;;;;2.01;94.97;100038.81;5064597;28;20032;-75
2021/12/23 07:06:34;;;;;;;64.68;21.65;;;;;;;2.07;94.96;100028.69;5064542;28;20051;-77
2021/12/23 07:09:04;;;;;;;74.45;22.98;;;;;;;2.12;95.07;100036.44;5064249;28;20028;-77
2021/12/23 07:11:30;;;;;;;76.13;25.08;;;;;;;2.11;95.08;100035.56;5062562;28;20063;-75
2021/12/23 07:13:56;;;;;;;71.05;22.55;;;;;;;2.10;95.27;100032.19;5064007;28;20021;-75
2021/12/23 07:16:21;;;;;;;68.03;22.27;;;;;;;2.09;95.29;100024.47;5064016;28;20025;-75
2021/12/23 07:18:46;;;;;;;75.65;23.27;;;;;;;2.07;95.56;100021.88;5062474;28;20098;-75
2021/12/23 07:21:12;;;;;;;77.63;25.33;;;;;;;2.13;95.22;100026.25;5063956;28;20481;-75
2021/12/23 07:23:38;;;;;;;101.25;28.90;;;;;;;2.20;95.26;100022.97;5063815;28;20031;-74
2021/12/23 07:26:03;;;;;;;91.32;27.15;;;;;;;2.20;95.18;100019.53;5062793;28;20215;-74
2021/12/23 07:28:28;;;;;;;108.20;28.50;;;;;;;2.19;95.29;100016.13;5063559;28;20036;-75
2021/12/23 07:30:55;;;;;;;84.40;27.02;;;;;;;2.21;95.21;100017.00;5063729;28;20066;-74
2021/12/23 07:33:21;;;;;;;81.18;23.00;;;;;;;2.21;95.37;100004.22;5063757;28;20073;-74
2021/12/23 07:35:46;;;;;;;60.15;18.50;;;;;;;2.22;95.12;100012.75;5063834;28;20016;-73
2021/12/23 07:38:11;;;;;;;77.10;24.50;;;;;;;2.19;95.29;100005.88;5063506;28;20013;-74
2021/12/23 07:40:37;;;;;;;79.47;24.52;;;;;;;2.22;95.18;100007.66;5062191;28;20523;-72
2021/12/23 07:45:58;;;;;;;83.25;23.50;;;;;;;2.18;95.06;100004.16;5058017;28;20045;-72
2021/12/23 07:48:23;;;;;;;80.40;26.02;;;;;;;2.19;95.05;100002.47;5062135;28;20036;-74
2021/12/23 07:50:49;;;;;;;65.75;22.77;;;;;;;2.17;95.07;99999.00;5063557;28;20025;-73
2021/12/23 07:53:14;;;;;;;68.82;22.98;;;;;;;2.09;95.27;99984.31;5063346;28;20025;-73
2021/12/23 07:55:42;;;;;;;73.32;24.30;;;;;;;2.15;95.04;99985.28;5063296;28;20032;-73
2021/12/23 07:58:08;;;;;;;76.15;22.50;;;;;;;2.13;95.28;99987.81;5061815;28;20021;-73
2021/12/23 08:00:34;;;;;;;74.13;23.67;;;;;;;2.09;95.27;99975.81;5063734;28;20031;-73
2021/12/23 08:02:59;;;;;;;55.88;21.33;;;;;;;2.10;95.24;99972.41;5063326;28;20128;-72
2021/12/23 08:05:24;;;;;;;73.68;23.80;;;;;;;2.11;95.35;99971.56;5063357;28;20045;-74
2021/12/23 08:07:50;;;;;;;71.90;24.40;;;;;;;2.10;95.45;99974.97;5063612;28;20028;-74
2021/12/23 08:10:15;;;;;;;95.82;26.98;;;;;;;2.13;95.46;99969.91;5063152;28;20048;-73
2021/12/23 08:12:41;;;;;;;79.70;26.05;;;;;;;2.16;95.48;99964.84;5063410;28;20032;-74
2021/12/23 08:15:07;;;;;;;93.95;28.90;;;;;;;2.19;95.59;99970.00;5063405;28;20048;-74
2021/12/23 08:17:32;;;;;;;97.78;27.98;;;;;;;2.15;95.66;99955.44;5061946;28;20025;-74
2021/12/23 08:19:58;;;;;;;80.90;25.08;;;;;;;2.16;95.37;99952.03;5063223;28;20051;-74
2021/12/23 08:22:23;;;;;;;92.35;28.25;;;;;;;2.17;95.49;99942.66;5061901;28;20044;-72
2021/12/23 08:24:48;;;;;;;111.90;30.17;;;;;;;2.19;95.46;99953.81;5062091;28;20029;-73
2021/12/23 08:27:14;;;;;;;54.42;17.58;;;;;;;2.13;95.44;99944.28;5063310;28;20044;-72
2021/12/23 08:29:39;;;;;;;104.90;29.85;;;;;;;2.17;95.53;99948.63;5063367;28;20056;-74
2021/12/23 08:32:05;;;;;;;111.82;32.33;;;;;;;2.14;95.65;99943.44;5063727;28;20079;-73
2021/12/23 08:34:34;;;;;;;87.82;28.73;;;;;;;2.18;95.65;99950.38;5063607;28;20469;-75
2021/12/23 08:37:00;;;;;;;94.05;28.23;;;;;;;2.18;95.64;99939.25;5062154;28;20052;-74
2021/12/23 08:39:26;;;;;;;88.35;27.08;;;;;;;2.18;95.70;99937.56;5062959;28;20021;-74
2021/12/23 08:41:51;;;;;;;65.30;22.65;;;;;;;2.15;95.59;99929.81;5067647;28;20051;-74
2021/12/23 08:44:17;;;;;;;87.95;25.70;;;;;;;2.11;95.36;99928.00;5066122;28;20024;-74
2021/12/23 08:46:42;;;;;;;76.45;23.60;;;;;;;2.11;95.45;99922.91;5064280;28;20021;-73
2021/12/23 08:49:07;;;;;;;66.75;21.23;;;;;;;2.10;95.61;99919.50;5063192;28;20024;-73
2021/12/23 08:51:35;;;;;;;57.60;19.58;;;;;;;2.10;95.44;99916.94;5063036;28;20348;-73
2021/12/23 08:54:00;;;;;;;36.92;15.38;;;;;;;2.02;95.25;99902.25;5062869;28;20040;-74
2021/12/23 08:56:25;;;;;;;34.70;13.77;;;;;;;2.02;95.02;99910.81;5061364;28;20025;-73
2021/12/23 08:58:51;;;;;;;42.30;13.70;;;;;;;1.96;95.14;99897.88;5062789;28;20021;-73
2021/12/23 09:01:17;;;;;;;33.67;12.23;;;;;;;1.93;95.15;99903.78;5062948;28;20469;-74
2021/12/23 09:03:42;;;;;;;27.98;10.88;;;;;;;1.89;95.16;99896.03;5062747;28;20029;-72
2021/12/23 09:06:07;;;;;;;25.92;9.95;;;;;;;1.87;94.92;99902.84;5063696;28;20092;-73
2021/12/23 09:08:33;;;;;;;32.40;11.10;;;;;;;1.85;95.16;99897.69;5065051;28;20028;-73
2021/12/23 09:10:59;;;;;;;22.73;9.75;;;;;;;1.78;95.12;99888.16;5066413;28;20052;-73
2021/12/23 09:13:25;;;;;;;26.80;10.35;;;;;;;1.73;95.08;99886.38;5066338;28;20080;-74
2021/12/23 09:15:51;;;;;;;20.05;8.80;;;;;;;1.78;95.08;99883.91;5065149;28;20023;-73
2021/12/23 09:18:19;;;;;;;21.98;9.18;;;;;;;1.78;95.22;99885.59;5066337;28;20116;-73
2021/12/23 09:20:44;;;;;;;25.15;12.50;;;;;;;1.76;95.34;99871.91;5066253;28;20036;-72
2021/12/23 09:23:10;;;;;;;27.45;11.65;;;;;;;1.76;95.24;99866.81;5066466;28;20021;-73
2021/12/23 09:25:35;;;;;;;33.80;11.90;;;;;;;1.73;95.24;99860.78;5065082;28;20023;-73
2021/12/23 09:28:29;;;;;;;28.17;11.90;;;;;;;1.70;95.31;99850.50;5066134;28;20104;-75
2021/12/23 09:33:31;;;;;;;32.63;13.38;;;;;;;1.78;95.21;99853.19;5066216;28;20024;-72
2021/12/23 09:35:56;;;;;;;37.05;13.40;;;;;;;1.80;95.49;99841.28;5066101;28;20060;-74
2021/12/23 09:38:28;;;;;;;34.38;13.90;;;;;;;1.90;95.65;99838.91;5065919;28;20080;-72
2021/12/23 09:41:00;;;;;;;33.72;14.00;;;;;;;1.93;95.69;99842.34;5066310;28;20024;-72
2021/12/23 09:43:28;;;;;;;33.30;13.38;;;;;;;1.97;95.65;99835.59;5064246;28;20044;-73
2021/12/23 09:45:54;;;;;;;36.70;14.38;;;;;;;2.02;95.66;99838.22;5064542;28;20055;-72
2021/12/23 09:48:21;;;;;;;43.60;16.38;;;;;;;2.05;95.71;99838.28;5065620;28;20051;-73
2021/12/23 09:50:50;;;;;;;41.53;15.98;;;;;;;2.08;95.60;99833.22;5065830;28;20081;-74
2021/12/23 09:53:19;;;;;;;42.78;16.80;;;;;;;2.12;95.80;99835.00;5065647;28;20408;-73
2021/12/23 09:55:44;;;;;;;47.72;17.02;;;;;;;2.10;95.74;99819.63;5065810;28;20024;-73
2021/12/23 09:58:10;;;;;;;55.90;18.65;;;;;;;2.17;95.77;99820.56;5065526;28;20029;-72
2021/12/23 10:00:39;;;;;;;65.28;22.50;;;;;;;2.23;95.85;99812.13;5065711;28;20475;-73
2021/12/23 10:03:06;;;;;;;65.30;24.25;;;;;;;2.26;95.88;99808.75;5065577;28;20473;-73
2021/12/23 10:05:33;;;;;;;88.80;27.08;;;;;;;2.33;95.71;99810.59;5065497;28;20060;-73
2021/12/23 10:08:00;;;;;;;79.00;26.08;;;;;;;2.38;95.92;99802.97;5065377;28;20040;-73
2021/12/23 10:10:37;;;;;;;107.22;29.80;;;;;;;2.35;95.92;99791.81;5063772;28;20041;-73
2021/12/23 10:26:50;;;;;;;116.18;34.10;;;;;;;2.42;95.72;99797.03;5065322;28;20021;-73
2021/12/23 10:33:43;;;;;;;157.50;45.25;;;;;;;2.46;95.71;99773.22;5064445;28;20363;-75
2021/12/23 10:38:52;;;;;;;184.70;49.63;;;;;;;2.41;95.78;99756.91;5064583;28;20055;-74
2021/12/23 10:41:22;;;;;;;151.57;50.20;;;;;;;2.44;95.74;99755.25;5064871;28;20045;-75
2021/12/23 10:43:51;;;;;;;148.07;48.72;;;;;;;2.43;95.83;99750.94;5063208;28;20025;-77
2021/12/23 10:46:27;;;;;;;188.45;54.80;;;;;;;2.43;95.74;99750.94;5064735;28;20029;-73
2021/12/23 10:49:15;;;;;;;156.00;51.05;;;;;;;2.42;95.75;99746.66;5064574;28;20484;-75
2021/12/23 10:52:03;;;;;;;162.15;48.25;;;;;;;2.42;95.70;99738.13;5064663;28;20051;-75
2021/12/23 11:00:12;;;;;;;99.43;36.50;;;;;;;2.29;95.08;99721.69;5064302;28;20036;-74
2021/12/23 11:02:39;;;;;;;75.50;26.27;;;;;;;2.25;95.50;99714.81;5062781;28;20039;-74
2021/12/23 11:05:18;;;;;;;84.05;28.77;;;;;;;2.19;95.57;99700.25;5064382;28;20041;-74
2021/12/23 11:07:54;;;;;;;50.55;20.40;;;;;;;2.16;95.32;99708.72;5064167;28;20108;-74
2021/12/23 11:10:39;;;;;;;45.72;17.67;;;;;;;2.02;95.07;99703.41;5063848;28;20049;-74
2021/12/23 11:38:21;;;;;;;102.75;33.75;;;;;;;1.87;95.49;99668.16;5040963;28;20120;-73
2021/12/23 11:45:47;;;;;;;92.40;32.83;;;;;;;1.84;95.42;99657.88;5040962;28;20059;-74
2021/12/23 11:48:14;;;;;;;96.85;31.02;;;;;;;1.86;95.46;99651.09;5040722;28;20060;-75
2021/12/23 11:53:39;;;;;;;110.63;36.28;;;;;;;1.91;95.72;99646.03;5050655;28;20101;-74
2021/12/23 11:56:07;;;;;;;92.00;35.10;;;;;;;1.96;95.71;99641.88;5062951;28;20017;-74
2021/12/23 11:58:33;;;;;;;91.65;34.00;;;;;;;2.01;95.77;99637.69;5062952;28;20473;-74
2021/12/23 12:01:13;;;;;;;127.47;40.35;;;;;;;2.04;95.77;99630.03;5063318;28;20040;-74
2021/12/23 12:03:51;;;;;;;109.05;34.92;;;;;;;2.06;95.85;99622.38;5063205;28;20033;-74
2021/12/23 12:06:21;;;;;;;106.97;35.42;;;;;;;2.04;95.68;99621.50;5061881;28;20477;-74
2021/12/23 12:08:47;;;;;;;106.40;33.63;;;;;;;2.05;95.70;99606.16;5063185;28;20052;-75
2021/12/23 12:11:15;;;;;;;101.28;34.42;;;;;;;2.09;95.67;99607.06;5061758;28;20037;-75
2021/12/23 12:13:40;;;;;;;123.35;40.15;;;;;;;2.05;95.67;99597.59;5063011;28;20087;-75
2021/12/23 12:16:35;;;;;;;122.70;38.90;;;;;;;2.06;95.70;99599.34;5063206;28;20029;-75
2021/12/23 12:19:04;;;;;;;121.88;37.92;;;;;;;2.08;95.35;99602.75;5062893;28;20068;-75
2021/12/23 12:21:34;;;;;;;122.45;38.30;;;;;;;2.04;95.45;99608.69;5062927;28;20056;-76
2021/12/23 12:24:17;;;;;;;131.88;39.20;;;;;;;2.04;95.37;99595.88;5062952;28;20029;-74
2021/12/23 12:26:57;;;;;;;116.65;37.95;;;;;;;2.03;95.65;99594.19;5061681;28;20028;-75
2021/12/23 12:29:33;;;;;;;109.40;36.40;;;;;;;2.05;95.72;99597.59;5061562;28;20155;-75
2021/12/23 12:31:59;;;;;;;102.18;35.78;;;;;;;1.97;95.50;99577.88;5062811;28;20067;-74